Time;durP1;ratioP1;P1;durP2;ratioP2;P2;SDS_P1;SDS_P2;PMS_P1;PMS_P2;Temp;Humidity;BMP_temperature;BMP_pressure;BME280_temperature;BME280_humidity;BME280_pressure;Samples;Min_cycle;Max_cycle;Signal;HPM_P1;HPM_P2
2022/11/17 00:01:03;;;;;;;5.67;5.07;;;;;;;;;;4952795;28;20186;-76
2022/11/17 00:03:28;;;;;;;4.93;4.53;;;;;;;;;;4954468;28;20182;-76
2022/11/17 00:05:54;;;;;;;5.53;4.60;;;;;;;;;;4951987;28;20196;-76
2022/11/17 00:08:19;;;;;;;6.17;4.80;;;;;;;;;;4952818;28;20243;-76
2022/11/17 00:10:44;;;;;;;4.97;4.57;;;;;;;;;;4950473;28;20228;-76
2022/11/17 00:15:53;;;;;;;5.80;5.30;;;;;;;;;;4952191;28;20216;-77
2022/11/17 00:21:18;;;;;;;6.47;5.43;;;;;;;;;;4954321;28;20272;-77
2022/11/17 00:23:46;;;;;;;5.30;4.77;;;;;;;;;;4952531;28;20205;-76
2022/11/17 00:26:21;;;;;;;6.50;4.97;;;;;;;;;;4969131;28;20182;-77
2022/11/17 00:28:50;;;;;;;6.30;4.73;;;;;;;;;;4968031;28;20185;-76
2022/11/17 00:34:05;;;;;;;6.20;5.20;;;;;;;;;;4953246;28;20195;-77
2022/11/17 00:36:32;;;;;;;7.57;5.40;;;;;;;;;;4970627;28;20240;-76
2022/11/17 00:38:57;;;;;;;5.90;5.30;;;;;;;;;;4964146;28;20211;-77
2022/11/17 00:41:22;;;;;;;8.93;5.70;;;;;;;;;;4954454;28;20245;-77
2022/11/17 00:43:48;;;;;;;7.20;6.00;;;;;;;;;;4955893;28;20212;-77
2022/11/17 00:46:13;;;;;;;10.37;6.47;;;;;;;;;;4948592;28;20189;-77
2022/11/17 00:48:38;;;;;;;7.93;5.17;;;;;;;;;;4961313;28;20186;-77
2022/11/17 00:51:04;;;;;;;7.67;5.70;;;;;;;;;;4951884;28;20306;-77
2022/11/17 00:53:29;;;;;;;7.07;5.97;;;;;;;;;;4955942;28;20189;-77
2022/11/17 00:55:54;;;;;;;8.90;6.77;;;;;;;;;;4967362;28;20205;-77
2022/11/17 00:58:19;;;;;;;6.13;5.53;;;;;;;;;;4949843;28;20232;-77
2022/11/17 01:00:47;;;;;;;6.83;4.93;;;;;;;;;;4953015;28;20501;-77
2022/11/17 01:03:12;;;;;;;6.40;5.63;;;;;;;;;;4950890;28;20200;-77
2022/11/17 01:05:37;;;;;;;6.63;4.90;;;;;;;;;;4949901;28;20216;-77
2022/11/17 01:08:02;;;;;;;8.50;5.67;;;;;;;;;;4951048;28;20231;-77
2022/11/17 01:10:27;;;;;;;6.37;5.60;;;;;;;;;;4950925;28;20212;-77
2022/11/17 01:12:53;;;;;;;5.30;4.57;;;;;;;;;;4964975;28;20218;-77
2022/11/17 01:15:18;;;;;;;5.70;5.10;;;;;;;;;;4950705;28;20220;-77
2022/11/17 01:17:43;;;;;;;5.80;5.20;;;;;;;;;;4951055;28;20271;-76
2022/11/17 01:20:09;;;;;;;6.20;5.13;;;;;;;;;;4950168;28;20211;-77
2022/11/17 01:22:34;;;;;;;6.63;4.90;;;;;;;;;;4966837;28;20229;-77
2022/11/17 01:24:59;;;;;;;5.73;5.00;;;;;;;;;;4951921;28;20230;-77
2022/11/17 01:27:24;;;;;;;5.57;5.07;;;;;;;;;;4950630;28;20182;-77
2022/11/17 01:29:49;;;;;;;6.13;5.20;;;;;;;;;;4949937;28;20236;-77
2022/11/17 01:32:15;;;;;;;5.87;5.27;;;;;;;;;;4952460;28;20185;-77
2022/11/17 01:34:40;;;;;;;5.53;5.03;;;;;;;;;;4952983;28;20217;-77
2022/11/17 01:37:18;;;;;;;10.70;5.80;;;;;;;;;;4950536;28;20194;-77
2022/11/17 01:39:44;;;;;;;6.70;5.17;;;;;;;;;;4947895;28;20261;-77
2022/11/17 01:42:23;;;;;;;5.87;5.30;;;;;;;;;;4951738;28;20261;-77
2022/11/17 01:45:23;;;;;;;6.10;5.23;;;;;;;;;;4966450;28;20220;-77
2022/11/17 01:47:51;;;;;;;6.17;4.73;;;;;;;;;;4947178;28;20195;-77
2022/11/17 01:50:30;;;;;;;6.83;5.50;;;;;;;;;;4950190;28;20201;-77
2022/11/17 01:52:58;;;;;;;5.80;5.03;;;;;;;;;;4932335;28;20189;-77
2022/11/17 01:55:24;;;;;;;5.93;5.30;;;;;;;;;;4932967;29;20224;-77
2022/11/17 01:57:55;;;;;;;5.60;4.80;;;;;;;;;;4932980;29;20213;-77
2022/11/17 02:00:20;;;;;;;6.13;4.73;;;;;;;;;;4936237;29;20180;-77
2022/11/17 02:02:46;;;;;;;5.13;4.63;;;;;;;;;;4952001;28;20281;-77
2022/11/17 02:05:11;;;;;;;4.67;4.27;;;;;;;;;;4934545;28;20279;-77
2022/11/17 02:07:37;;;;;;;6.90;4.90;;;;;;;;;;4938153;28;20236;-77
2022/11/17 02:10:04;;;;;;;5.30;4.80;;;;;;;;;;4933986;28;20192;-77
2022/11/17 02:12:30;;;;;;;5.87;5.13;;;;;;;;;;4949178;28;20189;-77
2022/11/17 02:14:55;;;;;;;5.43;4.80;;;;;;;;;;4936824;28;20225;-77
2022/11/17 02:17:22;;;;;;;5.73;4.50;;;;;;;;;;4953826;28;20218;-77
2022/11/17 02:20:02;;;;;;;6.03;5.53;;;;;;;;;;4935010;28;20182;-77
2022/11/17 02:22:47;;;;;;;5.40;4.90;;;;;;;;;;4963684;28;20191;-77
2022/11/17 02:25:21;;;;;;;6.30;4.70;;;;;;;;;;4968928;28;20185;-77
2022/11/17 02:28:03;;;;;;;7.70;5.70;;;;;;;;;;4971679;28;20239;-77
2022/11/17 02:30:36;;;;;;;6.77;5.20;;;;;;;;;;4969035;28;20187;-77
2022/11/17 02:33:04;;;;;;;5.77;4.77;;;;;;;;;;4954325;28;20231;-77
2022/11/17 02:35:43;;;;;;;5.90;5.00;;;;;;;;;;4950028;28;20215;-77
2022/11/17 02:38:17;;;;;;;5.07;4.57;;;;;;;;;;4953270;28;20176;-77
2022/11/17 02:40:47;;;;;;;6.13;4.63;;;;;;;;;;4972258;28;20177;-77
2022/11/17 02:46:04;;;;;;;5.53;4.70;;;;;;;;;;4951996;28;20226;-77
2022/11/17 02:48:34;;;;;;;5.73;5.10;;;;;;;;;;4956094;28;20184;-77
2022/11/17 02:51:01;;;;;;;5.27;4.43;;;;;;;;;;4951418;28;20188;-77
2022/11/17 02:53:27;;;;;;;4.63;4.10;;;;;;;;;;4946287;28;20208;-78
2022/11/17 02:55:53;;;;;;;5.50;4.37;;;;;;;;;;4954904;28;20212;-78
2022/11/17 02:58:18;;;;;;;4.67;4.27;;;;;;;;;;4953141;28;20325;-78
2022/11/17 03:00:56;;;;;;;5.10;4.30;;;;;;;;;;4951807;28;20172;-78
2022/11/17 03:03:41;;;;;;;6.83;4.63;;;;;;;;;;4953977;28;20201;-78
2022/11/17 03:06:25;;;;;;;4.60;3.87;;;;;;;;;;4949432;28;20204;-78
2022/11/17 03:08:50;;;;;;;5.67;4.47;;;;;;;;;;4966576;28;20233;-78
2022/11/17 03:11:15;;;;;;;4.83;4.03;;;;;;;;;;4966227;28;20190;-78
2022/11/17 03:14:10;;;;;;;5.27;4.20;;;;;;;;;;4960007;28;20279;-77
2022/11/17 03:16:38;;;;;;;5.60;4.80;;;;;;;;;;4959835;28;20209;-77
2022/11/17 03:19:10;;;;;;;4.67;4.17;;;;;;;;;;4969712;28;20275;-78
2022/11/17 03:21:45;;;;;;;4.70;3.93;;;;;;;;;;4961972;28;20304;-77
2022/11/17 03:24:20;;;;;;;5.07;4.07;;;;;;;;;;4950073;28;20311;-78
2022/11/17 03:26:51;;;;;;;6.87;4.53;;;;;;;;;;4972735;28;20219;-77
2022/11/17 03:29:18;;;;;;;4.97;4.53;;;;;;;;;;4951303;28;20222;-77
2022/11/17 03:31:44;;;;;;;4.97;4.47;;;;;;;;;;4949072;28;20192;-78
2022/11/17 03:34:12;;;;;;;5.50;4.80;;;;;;;;;;4951830;28;20258;-78
2022/11/17 03:36:38;;;;;;;5.33;4.90;;;;;;;;;;4952569;28;20191;-78
2022/11/17 03:39:07;;;;;;;4.80;4.30;;;;;;;;;;4950685;28;20184;-78
2022/11/17 03:41:33;;;;;;;6.37;4.67;;;;;;;;;;4964077;28;20220;-78
2022/11/17 03:43:59;;;;;;;5.10;4.60;;;;;;;;;;4966590;28;20231;-78
2022/11/17 03:46:25;;;;;;;7.03;5.27;;;;;;;;;;4966760;28;20192;-78
2022/11/17 03:48:54;;;;;;;4.93;4.40;;;;;;;;;;4957499;28;20199;-77
2022/11/17 03:51:23;;;;;;;6.73;5.93;;;;;;;;;;4952863;28;20183;-78
2022/11/17 03:53:49;;;;;;;7.37;5.37;;;;;;;;;;4965357;28;20564;-78
2022/11/17 03:56:20;;;;;;;6.20;5.63;;;;;;;;;;4952157;28;20220;-78
2022/11/17 03:58:53;;;;;;;6.83;5.77;;;;;;;;;;4968410;28;20196;-78
2022/11/17 04:01:19;;;;;;;10.03;5.70;;;;;;;;;;4950890;28;20188;-78
2022/11/17 04:03:44;;;;;;;7.53;6.20;;;;;;;;;;4953308;28;20277;-78
2022/11/17 04:06:10;;;;;;;6.77;6.10;;;;;;;;;;4966755;28;20288;-78
2022/11/17 04:08:35;;;;;;;6.63;5.93;;;;;;;;;;4954289;28;20273;-78
2022/11/17 04:16:28;;;;;;;6.40;5.80;;;;;;;;;;4950626;28;20208;-78
2022/11/17 04:18:53;;;;;;;7.50;6.13;;;;;;;;;;4953347;28;20188;-78
2022/11/17 04:21:18;;;;;;;6.93;6.23;;;;;;;;;;4967808;28;20208;-77
2022/11/17 04:23:44;;;;;;;8.90;7.43;;;;;;;;;;4953244;28;20194;-78
2022/11/17 04:28:53;;;;;;;8.47;6.57;;;;;;;;;;4949814;28;20194;-78
2022/11/17 04:31:23;;;;;;;9.13;7.17;;;;;;;;;;4951675;28;20648;-77
2022/11/17 04:33:50;;;;;;;9.47;7.57;;;;;;;;;;4966675;28;20182;-78
2022/11/17 04:36:26;;;;;;;8.27;7.40;;;;;;;;;;4953873;28;20301;-78
2022/11/17 04:38:53;;;;;;;8.73;7.87;;;;;;;;;;4950831;28;20179;-78
2022/11/17 04:44:03;;;;;;;7.97;7.00;;;;;;;;;;4952691;28;20260;-78
2022/11/17 04:46:29;;;;;;;9.77;8.53;;;;;;;;;;4951610;28;20184;-78
2022/11/17 04:48:55;;;;;;;9.23;7.97;;;;;;;;;;4951688;28;20189;-78
2022/11/17 04:51:20;;;;;;;10.13;8.00;;;;;;;;;;4952878;28;20180;-78
2022/11/17 04:53:45;;;;;;;8.87;7.97;;;;;;;;;;4952015;28;20301;-78
2022/11/17 04:56:12;;;;;;;9.63;8.17;;;;;;;;;;4949309;28;20516;-78
2022/11/17 04:58:37;;;;;;;9.20;8.03;;;;;;;;;;4953758;28;20178;-78
2022/11/17 05:01:11;;;;;;;8.93;8.13;;;;;;;;;;4967848;28;20345;-78
2022/11/17 05:03:38;;;;;;;9.67;8.37;;;;;;;;;;4953232;28;20176;-78
2022/11/17 05:06:03;;;;;;;10.97;8.67;;;;;;;;;;4964152;28;20236;-78
2022/11/17 05:08:28;;;;;;;9.57;8.00;;;;;;;;;;4948904;28;20229;-78
2022/11/17 05:13:40;;;;;;;11.77;9.20;;;;;;;;;;4948357;28;20193;-78
2022/11/17 05:18:49;;;;;;;12.70;10.17;;;;;;;;;;4958880;28;20227;-78
2022/11/17 05:21:14;;;;;;;9.93;8.93;;;;;;;;;;4959203;28;20213;-78
2022/11/17 05:23:54;;;;;;;24.87;19.33;;;;;;;;;;4950589;28;20276;-78
2022/11/17 05:26:21;;;;;;;12.10;10.50;;;;;;;;;;4946169;28;20218;-80
2022/11/17 05:28:46;;;;;;;35.57;32.33;;;;;;;;;;4952500;28;20246;-80
2022/11/17 05:31:12;;;;;;;12.37;11.17;;;;;;;;;;4954014;28;20185;-80
2022/11/17 05:33:37;;;;;;;13.23;11.83;;;;;;;;;;4950411;28;20178;-80
2022/11/17 05:36:03;;;;;;;12.20;10.90;;;;;;;;;;4943623;28;20320;-80
2022/11/17 05:38:28;;;;;;;14.20;12.40;;;;;;;;;;4966114;28;20185;-80
2022/11/17 05:40:53;;;;;;;11.03;9.93;;;;;;;;;;4951821;28;20182;-80
2022/11/17 05:43:18;;;;;;;13.87;11.03;;;;;;;;;;4955321;28;20180;-80
2022/11/17 05:45:44;;;;;;;13.77;12.27;;;;;;;;;;4956732;28;20212;-80
2022/11/17 05:48:09;;;;;;;18.63;13.50;;;;;;;;;;4968441;28;20208;-80
2022/11/17 05:50:35;;;;;;;12.53;11.23;;;;;;;;;;4953756;28;20186;-77
2022/11/17 05:53:00;;;;;;;15.10;12.17;;;;;;;;;;4961543;28;20263;-78
2022/11/17 05:55:25;;;;;;;12.90;11.60;;;;;;;;;;4951819;28;20226;-78
2022/11/17 05:57:51;;;;;;;14.37;12.87;;;;;;;;;;4966905;28;20177;-77
2022/11/17 06:00:16;;;;;;;12.70;10.97;;;;;;;;;;4953818;28;20181;-77
2022/11/17 06:02:44;;;;;;;14.87;12.53;;;;;;;;;;4953945;28;20190;-77
2022/11/17 06:05:09;;;;;;;14.83;13.40;;;;;;;;;;4952470;28;20216;-77
2022/11/17 06:07:35;;;;;;;13.73;12.33;;;;;;;;;;4953149;28;20271;-77
2022/11/17 06:10:00;;;;;;;12.80;11.50;;;;;;;;;;4957129;28;20189;-77
2022/11/17 06:12:25;;;;;;;12.57;10.40;;;;;;;;;;4959137;28;20182;-77
2022/11/17 06:14:51;;;;;;;9.90;8.90;;;;;;;;;;4952910;28;20216;-77
2022/11/17 06:17:42;;;;;;;12.03;10.30;;;;;;;;;;4955911;28;20173;-77
2022/11/17 06:20:12;;;;;;;12.87;9.97;;;;;;;;;;4961629;28;20195;-77
2022/11/17 06:22:37;;;;;;;13.40;10.40;;;;;;;;;;4955133;28;20193;-77
2022/11/17 06:25:03;;;;;;;14.00;11.13;;;;;;;;;;4951465;28;20194;-77
2022/11/17 06:27:30;;;;;;;12.73;9.63;;;;;;;;;;4953685;28;20241;-77
2022/11/17 06:29:58;;;;;;;11.53;9.50;;;;;;;;;;4949437;28;20193;-77
2022/11/17 06:32:23;;;;;;;11.90;9.73;;;;;;;;;;4950757;28;20178;-77
2022/11/17 06:34:49;;;;;;;12.73;11.13;;;;;;;;;;4971464;28;20252;-78
2022/11/17 06:37:14;;;;;;;12.40;10.30;;;;;;;;;;4953935;29;20228;-77
2022/11/17 06:39:39;;;;;;;11.00;9.10;;;;;;;;;;4954771;28;20169;-77
2022/11/17 06:42:04;;;;;;;11.37;9.17;;;;;;;;;;4954974;28;20218;-78
2022/11/17 06:44:32;;;;;;;10.50;8.20;;;;;;;;;;4954328;28;20246;-77
2022/11/17 06:46:58;;;;;;;10.10;9.03;;;;;;;;;;4954550;28;20192;-78
2022/11/17 06:49:23;;;;;;;10.60;9.40;;;;;;;;;;4953184;29;20420;-78
2022/11/17 06:51:49;;;;;;;11.53;9.10;;;;;;;;;;4953658;28;20177;-78
2022/11/17 06:54:14;;;;;;;10.97;8.93;;;;;;;;;;4954107;28;20279;-78
2022/11/17 06:56:39;;;;;;;9.97;8.97;;;;;;;;;;4952679;28;20181;-77
2022/11/17 06:59:04;;;;;;;9.80;8.80;;;;;;;;;;4954162;28;20326;-77
2022/11/17 07:01:30;;;;;;;9.67;8.07;;;;;;;;;;4954245;28;20172;-78
2022/11/17 07:03:55;;;;;;;8.60;7.63;;;;;;;;;;4970036;28;20317;-78
2022/11/17 07:06:20;;;;;;;8.80;7.90;;;;;;;;;;4965776;28;20209;-77
2022/11/17 07:08:45;;;;;;;8.67;7.70;;;;;;;;;;4950248;28;20236;-77
2022/11/17 07:11:12;;;;;;;9.47;8.47;;;;;;;;;;4952865;28;20185;-78
2022/11/17 07:13:38;;;;;;;9.47;8.47;;;;;;;;;;4952933;28;20181;-78
2022/11/17 07:16:09;;;;;;;9.30;8.37;;;;;;;;;;4969352;28;20218;-78
2022/11/17 07:18:35;;;;;;;11.23;9.13;;;;;;;;;;4962583;28;20165;-77
2022/11/17 07:21:02;;;;;;;9.13;8.27;;;;;;;;;;4953307;28;20172;-78
2022/11/17 07:23:27;;;;;;;10.53;7.90;;;;;;;;;;4953548;28;20194;-78
2022/11/17 07:25:52;;;;;;;7.57;6.83;;;;;;;;;;4953889;28;20212;-78
2022/11/17 07:28:18;;;;;;;8.67;7.63;;;;;;;;;;4953739;29;20189;-78
2022/11/17 07:30:43;;;;;;;13.37;10.30;;;;;;;;;;4954549;28;20177;-78
2022/11/17 07:33:08;;;;;;;14.60;10.20;;;;;;;;;;4953465;28;20192;-78
2022/11/17 07:35:34;;;;;;;12.50;8.93;;;;;;;;;;4954256;28;20196;-78
2022/11/17 07:38:00;;;;;;;9.20;6.93;;;;;;;;;;4953503;28;20194;-78
2022/11/17 07:40:26;;;;;;;8.47;7.33;;;;;;;;;;4952791;29;20190;-78
2022/11/17 07:42:51;;;;;;;9.20;7.70;;;;;;;;;;4954518;28;20189;-78
2022/11/17 07:45:16;;;;;;;9.33;7.07;;;;;;;;;;4969038;28;20257;-78
2022/11/17 07:47:41;;;;;;;7.13;6.43;;;;;;;;;;4953066;29;20217;-78
2022/11/17 07:50:07;;;;;;;7.57;6.10;;;;;;;;;;4952892;28;20185;-78
2022/11/17 07:52:32;;;;;;;6.87;5.73;;;;;;;;;;4951617;28;20189;-78
2022/11/17 07:54:57;;;;;;;7.67;4.90;;;;;;;;;;4953710;28;20356;-77
2022/11/17 07:57:24;;;;;;;4.97;3.27;;;;;;;;;;4971942;28;20182;-78
2022/11/17 07:59:49;;;;;;;3.33;2.63;;;;;;;;;;4956760;28;20216;-78
2022/11/17 08:02:14;;;;;;;2.57;1.90;;;;;;;;;;4957306;28;20176;-78
2022/11/17 08:04:39;;;;;;;4.60;1.53;;;;;;;;;;4956806;28;20197;-78
2022/11/17 08:07:05;;;;;;;2.63;1.13;;;;;;;;;;4959684;28;20222;-77
2022/11/17 08:09:30;;;;;;;2.40;1.30;;;;;;;;;;4951956;28;20181;-78
2022/11/17 08:11:56;;;;;;;4.23;1.20;;;;;;;;;;4959386;28;20264;-78
2022/11/17 08:14:21;;;;;;;3.67;1.60;;;;;;;;;;4952647;28;20197;-78
2022/11/17 08:16:47;;;;;;;1.27;1.13;;;;;;;;;;4958756;28;20254;-78
2022/11/17 08:19:13;;;;;;;3.83;1.60;;;;;;;;;;4956729;28;20185;-78
2022/11/17 08:21:39;;;;;;;1.70;1.20;;;;;;;;;;4959444;28;20174;-79
2022/11/17 08:24:05;;;;;;;1.20;0.90;;;;;;;;;;4957863;28;20192;-79
2022/11/17 08:26:31;;;;;;;3.70;1.87;;;;;;;;;;4957164;28;20182;-77
2022/11/17 08:28:57;;;;;;;1.67;1.10;;;;;;;;;;4953266;28;20233;-79
2022/11/17 08:31:22;;;;;;;1.77;1.60;;;;;;;;;;4952553;28;20186;-78
2022/11/17 08:33:48;;;;;;;2.63;1.03;;;;;;;;;;4957610;28;20188;-78
2022/11/17 08:36:13;;;;;;;3.03;1.90;;;;;;;;;;4954723;28;20206;-78
2022/11/17 08:38:38;;;;;;;2.97;1.00;;;;;;;;;;4959314;28;20188;-78
2022/11/17 08:41:05;;;;;;;2.07;1.40;;;;;;;;;;4952542;28;20182;-77
2022/11/17 08:43:30;;;;;;;3.60;1.20;;;;;;;;;;4969058;28;20172;-77
2022/11/17 08:45:56;;;;;;;1.77;1.50;;;;;;;;;;4956702;28;20207;-78
2022/11/17 08:48:21;;;;;;;2.83;0.97;;;;;;;;;;4953261;28;20177;-78
2022/11/17 08:50:47;;;;;;;0.80;0.80;;;;;;;;;;4954889;28;20176;-78
2022/11/17 08:53:19;;;;;;;1.93;1.00;;;;;;;;;;4951626;28;20268;-78
2022/11/17 08:55:45;;;;;;;4.00;1.47;;;;;;;;;;4952437;28;20216;-77
2022/11/17 08:58:11;;;;;;;1.47;1.07;;;;;;;;;;4951853;28;20177;-78
2022/11/17 09:00:36;;;;;;;3.60;1.20;;;;;;;;;;4950444;28;20181;-78
2022/11/17 09:03:05;;;;;;;3.20;1.27;;;;;;;;;;4958634;28;20176;-78
2022/11/17 09:05:31;;;;;;;1.93;1.10;;;;;;;;;;4949232;28;20201;-78
2022/11/17 09:07:58;;;;;;;2.80;1.10;;;;;;;;;;4952778;28;20229;-78
2022/11/17 09:10:23;;;;;;;1.30;1.13;;;;;;;;;;4961414;28;20193;-77
2022/11/17 09:12:49;;;;;;;1.93;1.10;;;;;;;;;;4959553;28;20177;-74
2022/11/17 09:15:14;;;;;;;3.07;1.20;;;;;;;;;;4958995;28;20214;-75
2022/11/17 09:17:41;;;;;;;5.53;1.60;;;;;;;;;;4955544;28;20178;-76
2022/11/17 09:20:07;;;;;;;4.30;1.40;;;;;;;;;;4957421;28;20174;-80
2022/11/17 09:22:33;;;;;;;8.87;2.70;;;;;;;;;;4956023;28;20178;-77
2022/11/17 09:24:58;;;;;;;4.73;2.27;;;;;;;;;;4963573;28;20190;-78
2022/11/17 09:27:23;;;;;;;2.43;1.13;;;;;;;;;;4963445;28;20198;-80
2022/11/17 09:29:48;;;;;;;2.60;1.40;;;;;;;;;;4956827;28;20192;-78
2022/11/17 09:32:15;;;;;;;2.83;1.17;;;;;;;;;;4955269;28;20192;-78
2022/11/17 09:34:40;;;;;;;4.17;1.50;;;;;;;;;;4958452;28;20216;-77
2022/11/17 09:37:06;;;;;;;3.00;1.20;;;;;;;;;;4955613;28;20174;-78
2022/11/17 09:39:31;;;;;;;5.97;1.43;;;;;;;;;;4956474;28;20185;-78
2022/11/17 09:41:56;;;;;;;2.03;1.30;;;;;;;;;;4956283;28;20180;-78
2022/11/17 09:44:22;;;;;;;3.47;1.57;;;;;;;;;;4954893;28;20203;-77
2022/11/17 09:46:54;;;;;;;3.80;1.03;;;;;;;;;;4958263;28;20189;-78
2022/11/17 09:49:42;;;;;;;3.87;1.63;;;;;;;;;;4957043;28;20188;-78
2022/11/17 09:52:26;;;;;;;3.07;1.40;;;;;;;;;;4956023;28;20197;-77
2022/11/17 09:54:51;;;;;;;2.30;1.30;;;;;;;;;;4970892;28;20244;-78
2022/11/17 09:57:20;;;;;;;2.87;1.30;;;;;;;;;;4957354;28;20220;-78
2022/11/17 09:59:48;;;;;;;4.43;1.60;;;;;;;;;;4963566;28;20186;-78
2022/11/17 10:02:13;;;;;;;3.60;1.70;;;;;;;;;;4954555;28;20208;-77
2022/11/17 10:04:38;;;;;;;7.93;1.63;;;;;;;;;;4953430;28;20178;-78
2022/11/17 10:07:05;;;;;;;3.10;1.50;;;;;;;;;;4954989;28;20193;-78
2022/11/17 10:09:34;;;;;;;3.70;1.77;;;;;;;;;;4948496;28;20240;-78
2022/11/17 10:12:11;;;;;;;6.27;1.60;;;;;;;;;;4970158;28;20243;-78
2022/11/17 10:14:38;;;;;;;2.53;1.47;;;;;;;;;;4953499;28;20209;-77
2022/11/17 10:17:03;;;;;;;5.00;1.53;;;;;;;;;;4954548;28;20188;-77
2022/11/17 10:19:32;;;;;;;4.63;1.60;;;;;;;;;;4955048;28;20177;-78
2022/11/17 10:22:00;;;;;;;5.53;1.60;;;;;;;;;;4955021;28;20188;-77
2022/11/17 10:24:36;;;;;;;3.07;1.73;;;;;;;;;;4951844;28;20189;-77
2022/11/17 10:27:02;;;;;;;7.83;1.70;;;;;;;;;;4974443;28;20187;-77
2022/11/17 10:29:28;;;;;;;3.93;1.60;;;;;;;;;;4956588;28;20426;-77
2022/11/17 10:31:53;;;;;;;6.70;2.30;;;;;;;;;;4953012;28;20279;-77
2022/11/17 10:34:32;;;;;;;5.20;1.60;;;;;;;;;;4958866;28;20217;-77
2022/11/17 10:37:02;;;;;;;4.60;1.93;;;;;;;;;;4976208;28;20184;-77
2022/11/17 10:39:35;;;;;;;2.37;1.27;;;;;;;;;;4955828;28;20181;-78
2022/11/17 10:42:01;;;;;;;6.77;1.87;;;;;;;;;;4953344;28;20284;-78
2022/11/17 10:44:29;;;;;;;5.57;1.60;;;;;;;;;;4954695;28;20211;-77
2022/11/17 10:46:54;;;;;;;4.63;1.90;;;;;;;;;;4957947;28;20181;-77
2022/11/17 10:49:23;;;;;;;2.83;1.30;;;;;;;;;;4973520;28;20187;-78
2022/11/17 10:52:02;;;;;;;6.70;2.13;;;;;;;;;;4955376;28;20178;-78
2022/11/17 10:54:27;;;;;;;3.90;2.07;;;;;;;;;;4956080;28;20181;-78
2022/11/17 10:56:54;;;;;;;2.83;1.40;;;;;;;;;;4969644;28;20181;-78
2022/11/17 10:59:29;;;;;;;3.70;1.60;;;;;;;;;;4977436;28;20184;-78
2022/11/17 11:01:54;;;;;;;3.73;1.30;;;;;;;;;;4961290;28;20184;-78
2022/11/17 11:04:29;;;;;;;3.43;1.57;;;;;;;;;;4953879;28;20179;-78
2022/11/17 11:07:18;;;;;;;5.13;2.30;;;;;;;;;;4969362;28;20228;-77
2022/11/17 11:09:46;;;;;;;3.63;1.43;;;;;;;;;;4969344;28;20190;-77
2022/11/17 11:12:14;;;;;;;2.17;1.00;;;;;;;;;;4952439;28;20252;-78
2022/11/17 11:14:40;;;;;;;4.10;1.17;;;;;;;;;;4959866;28;20217;-77
2022/11/17 11:17:13;;;;;;;1.77;1.10;;;;;;;;;;4960150;28;20178;-78
2022/11/17 11:19:40;;;;;;;3.63;1.33;;;;;;;;;;4956412;28;20177;-78
2022/11/17 11:22:20;;;;;;;3.13;2.33;;;;;;;;;;4974654;28;20176;-77
2022/11/17 11:24:55;;;;;;;5.30;1.63;;;;;;;;;;4958938;28;20256;-77
2022/11/17 11:27:29;;;;;;;2.07;1.47;;;;;;;;;;4972752;28;20301;-77
2022/11/17 11:30:04;;;;;;;2.97;1.10;;;;;;;;;;4967396;28;20203;-76
2022/11/17 11:32:38;;;;;;;1.90;0.80;;;;;;;;;;4968555;28;20196;-77
2022/11/17 11:35:13;;;;;;;2.13;0.97;;;;;;;;;;4970846;28;20208;-78
2022/11/17 11:37:40;;;;;;;2.87;1.10;;;;;;;;;;4966051;28;20196;-77
2022/11/17 11:40:14;;;;;;;1.20;1.10;;;;;;;;;;4956114;28;20183;-78
2022/11/17 11:42:39;;;;;;;6.27;1.33;;;;;;;;;;4955325;28;20189;-78
2022/11/17 11:45:15;;;;;;;2.43;1.27;;;;;;;;;;4972961;28;20197;-78
2022/11/17 11:47:52;;;;;;;1.10;0.90;;;;;;;;;;4952055;28;20185;-79
2022/11/17 11:50:20;;;;;;;2.93;1.13;;;;;;;;;;4970396;28;20220;-77
2022/11/17 11:53:02;;;;;;;3.50;1.30;;;;;;;;;;4952994;28;20284;-77
2022/11/17 11:55:33;;;;;;;3.47;1.37;;;;;;;;;;4973580;28;20198;-77
2022/11/17 11:58:17;;;;;;;5.83;1.27;;;;;;;;;;4970373;28;20181;-77
2022/11/17 12:00:43;;;;;;;4.80;1.43;;;;;;;;;;4972452;28;20197;-78
2022/11/17 12:03:26;;;;;;;3.93;1.40;;;;;;;;;;4963929;28;20181;-77
2022/11/17 12:09:18;;;;;;;2.27;1.60;;;;;;;;;;4954020;28;20323;-77
2022/11/17 12:12:00;;;;;;;4.47;1.90;;;;;;;;;;4966695;28;20190;-76
2022/11/17 12:14:26;;;;;;;3.43;1.80;;;;;;;;;;4953241;28;20186;-77
2022/11/17 12:17:12;;;;;;;7.13;2.63;;;;;;;;;;4976678;28;20187;-77
2022/11/17 12:19:41;;;;;;;3.83;1.90;;;;;;;;;;4953047;28;20278;-77
2022/11/17 12:22:06;;;;;;;5.90;2.07;;;;;;;;;;4968268;28;20207;-78
2022/11/17 12:24:39;;;;;;;7.50;2.60;;;;;;;;;;4958378;28;20177;-77
2022/11/17 12:27:23;;;;;;;5.20;2.20;;;;;;;;;;4956469;28;20278;-77
2022/11/17 12:29:48;;;;;;;4.63;2.73;;;;;;;;;;4969089;28;20187;-77
2022/11/17 12:32:33;;;;;;;2.90;1.60;;;;;;;;;;4957092;28;20185;-77
2022/11/17 12:35:21;;;;;;;8.07;3.07;;;;;;;;;;4956768;28;20274;-77
2022/11/17 12:37:46;;;;;;;6.53;2.20;;;;;;;;;;4956672;28;20231;-78
2022/11/17 12:40:38;;;;;;;4.20;2.20;;;;;;;;;;4960922;28;20197;-77
2022/11/17 12:43:15;;;;;;;3.07;1.73;;;;;;;;;;4948256;28;20253;-78
2022/11/17 12:45:59;;;;;;;4.50;1.87;;;;;;;;;;4966804;28;20234;-77
2022/11/17 12:48:26;;;;;;;5.53;2.83;;;;;;;;;;4968154;28;20224;-77
2022/11/17 12:51:11;;;;;;;5.10;2.23;;;;;;;;;;4956349;28;20214;-78
2022/11/17 12:53:55;;;;;;;3.07;1.57;;;;;;;;;;4968367;28;20590;-78
2022/11/17 12:56:32;;;;;;;4.13;1.80;;;;;;;;;;4975326;28;20218;-77
2022/11/17 12:58:58;;;;;;;2.97;1.80;;;;;;;;;;4958352;28;20182;-77
2022/11/17 13:01:38;;;;;;;6.37;2.10;;;;;;;;;;4969370;28;20176;-77
2022/11/17 13:04:08;;;;;;;4.60;1.60;;;;;;;;;;4977696;28;20195;-77
2022/11/17 13:06:34;;;;;;;3.63;1.93;;;;;;;;;;4967401;28;20180;-77
2022/11/17 13:09:05;;;;;;;4.93;1.67;;;;;;;;;;4954280;28;20243;-78
2022/11/17 13:11:30;;;;;;;4.63;1.93;;;;;;;;;;4952188;28;20188;-77
2022/11/17 13:14:08;;;;;;;5.90;2.03;;;;;;;;;;4955681;28;20194;-77
2022/11/17 13:16:35;;;;;;;7.10;2.10;;;;;;;;;;4953563;28;20212;-78
2022/11/17 13:19:00;;;;;;;6.43;1.83;;;;;;;;;;4959805;28;20183;-77
2022/11/17 13:21:28;;;;;;;4.10;1.60;;;;;;;;;;4951939;28;20185;-76
2022/11/17 13:23:54;;;;;;;3.97;1.47;;;;;;;;;;4947671;28;20199;-77
2022/11/17 13:26:19;;;;;;;5.37;2.07;;;;;;;;;;4956246;28;20215;-77
2022/11/17 13:28:45;;;;;;;5.03;1.90;;;;;;;;;;4967513;28;20281;-77
2022/11/17 13:31:22;;;;;;;4.93;2.43;;;;;;;;;;4952023;28;20215;-77
2022/11/17 13:33:59;;;;;;;4.13;1.83;;;;;;;;;;4961577;28;20641;-77
2022/11/17 13:36:26;;;;;;;5.93;1.63;;;;;;;;;;4950157;29;20215;-77
2022/11/17 13:38:53;;;;;;;5.80;1.77;;;;;;;;;;4949020;28;20174;-77
2022/11/17 13:41:20;;;;;;;5.40;2.07;;;;;;;;;;4957132;28;20189;-77
2022/11/17 13:43:46;;;;;;;3.20;1.50;;;;;;;;;;4946065;28;20624;-77
2022/11/17 13:46:11;;;;;;;6.23;2.93;;;;;;;;;;4963911;28;20206;-77
2022/11/17 13:48:41;;;;;;;6.53;2.00;;;;;;;;;;4965343;28;20199;-77
2022/11/17 13:51:18;;;;;;;6.67;2.00;;;;;;;;;;4959245;28;20216;-77
2022/11/17 13:53:49;;;;;;;8.23;2.23;;;;;;;;;;4960240;28;20188;-77
2022/11/17 13:56:25;;;;;;;5.03;1.93;;;;;;;;;;4951936;28;20204;-77
2022/11/17 13:58:51;;;;;;;5.80;2.00;;;;;;;;;;4949518;29;20263;-77
2022/11/17 14:01:24;;;;;;;6.47;2.00;;;;;;;;;;4950195;28;20307;-77
2022/11/17 14:03:50;;;;;;;5.77;2.27;;;;;;;;;;4953091;28;20198;-77
2022/11/17 14:06:15;;;;;;;11.23;3.40;;;;;;;;;;4950786;28;20185;-77
2022/11/17 14:08:41;;;;;;;4.83;2.20;;;;;;;;;;4948130;28;20260;-77
2022/11/17 14:11:07;;;;;;;6.97;2.40;;;;;;;;;;4953236;28;20263;-77
2022/11/17 14:13:45;;;;;;;8.60;2.40;;;;;;;;;;4972675;28;20212;-77
2022/11/17 14:16:21;;;;;;;6.73;2.30;;;;;;;;;;4956443;28;20218;-77
2022/11/17 14:18:57;;;;;;;3.83;1.70;;;;;;;;;;4955069;28;20175;-77
2022/11/17 14:21:22;;;;;;;5.00;2.17;;;;;;;;;;4954517;28;20184;-77
2022/11/17 14:23:48;;;;;;;8.17;2.60;;;;;;;;;;4966369;28;20198;-77
2022/11/17 14:26:20;;;;;;;9.07;2.97;;;;;;;;;;4952198;28;20191;-77
2022/11/17 14:28:46;;;;;;;4.33;1.80;;;;;;;;;;4948288;28;20199;-77
2022/11/17 14:31:12;;;;;;;5.77;2.47;;;;;;;;;;4950778;28;20541;-77
2022/11/17 14:33:38;;;;;;;3.27;2.03;;;;;;;;;;4973110;28;20190;-77
2022/11/17 14:36:04;;;;;;;5.63;1.80;;;;;;;;;;4950784;28;20276;-77
2022/11/17 14:38:30;;;;;;;6.87;2.57;;;;;;;;;;4960852;28;20184;-77
2022/11/17 14:40:55;;;;;;;4.93;1.73;;;;;;;;;;4952317;28;20187;-77
2022/11/17 14:43:21;;;;;;;5.53;1.97;;;;;;;;;;4956331;28;20182;-77
2022/11/17 14:45:46;;;;;;;8.07;2.37;;;;;;;;;;4967419;28;20239;-78
2022/11/17 14:48:12;;;;;;;4.30;2.10;;;;;;;;;;4965576;28;20187;-77
2022/11/17 14:50:37;;;;;;;5.50;2.13;;;;;;;;;;4952743;28;20182;-77
2022/11/17 14:53:02;;;;;;;7.37;2.53;;;;;;;;;;4949070;28;20191;-77
2022/11/17 14:55:27;;;;;;;6.83;2.40;;;;;;;;;;4966334;28;20214;-76
2022/11/17 14:57:53;;;;;;;8.83;2.80;;;;;;;;;;4952288;28;20572;-77
2022/11/17 15:00:19;;;;;;;6.57;2.13;;;;;;;;;;4951369;28;20180;-77
2022/11/17 15:02:44;;;;;;;7.13;2.13;;;;;;;;;;4969058;28;20224;-77
2022/11/17 15:05:10;;;;;;;5.57;1.97;;;;;;;;;;4953458;28;20186;-77
2022/11/17 15:07:35;;;;;;;7.27;2.10;;;;;;;;;;4953214;29;20225;-77
2022/11/17 15:10:01;;;;;;;4.27;1.80;;;;;;;;;;4954117;28;20190;-77
2022/11/17 15:12:28;;;;;;;4.80;2.63;;;;;;;;;;4951821;28;20217;-77
2022/11/17 15:14:56;;;;;;;6.60;2.00;;;;;;;;;;4951442;28;20305;-77
2022/11/17 15:17:21;;;;;;;7.40;2.67;;;;;;;;;;4950941;28;20183;-78
2022/11/17 15:19:46;;;;;;;4.53;2.00;;;;;;;;;;4953434;28;20242;-77